createdAt,value
2023-03-22T00:03:14.279Z,100.40
2023-03-22T00:06:41.349Z,95.10
2023-03-22T00:10:11.282Z,93.50
2023-03-22T00:13:39.016Z,91.80
2023-03-22T00:17:06.256Z,89.20
2023-03-22T00:20:38.225Z,86.90
2023-03-22T00:24:05.963Z,92.50
2023-03-22T00:27:33.366Z,88.10
2023-03-22T00:31:02.129Z,95.80
2023-03-22T00:34:31.677Z,91.10
2023-03-22T00:38:05.948Z,90.90
2023-03-22T00:41:32.945Z,94.40
2023-03-22T00:44:59.953Z,100.60
2023-03-22T00:48:27.276Z,98.40
2023-03-22T00:51:54.917Z,102.70
2023-03-22T00:55:22.057Z,91.10
2023-03-22T00:58:49.309Z,95.20
2023-03-22T01:02:16.487Z,94.00
2023-03-22T01:05:45.498Z,99.10
2023-03-22T01:09:15.041Z,93.00
2023-03-22T01:12:42.173Z,95.90
2023-03-22T01:16:10.963Z,81.20
2023-03-22T01:19:38.920Z,100.50
2023-03-22T01:23:06.355Z,94.10
2023-03-22T01:26:33.657Z,90.50
2023-03-22T01:30:00.685Z,93.40
2023-03-22T01:33:28.248Z,89.10
2023-03-22T01:36:56.388Z,92.70
2023-03-22T01:40:23.799Z,97.50
2023-03-22T01:44:14.989Z,89.00
2023-03-22T01:47:44.528Z,89.90
2023-03-22T01:51:14.756Z,90.80
2023-03-22T01:55:18.261Z,83.10
2023-03-22T01:58:48.331Z,86.30
2023-03-22T02:05:51.482Z,95.10
2023-03-22T02:09:22.170Z,88.10
2023-03-22T02:13:04.648Z,84.50
2023-03-22T02:17:00.153Z,84.10
2023-03-22T02:21:03.358Z,79.20
2023-03-22T02:28:45.819Z,88.10
2023-03-22T02:33:07.375Z,84.30
2023-03-22T02:37:02.403Z,83.90
2023-03-22T02:40:36.224Z,88.00
2023-03-22T02:44:14.317Z,90.40
2023-03-22T02:47:44.880Z,89.40
2023-03-22T02:51:20.288Z,86.40
2023-03-22T02:54:51.865Z,89.30
2023-03-22T02:58:22.519Z,89.30
2023-03-22T03:01:53.878Z,91.30
2023-03-22T03:05:22.820Z,96.10
2023-03-22T03:08:52.082Z,86.50
2023-03-22T03:15:52.845Z,92.50
2023-03-22T03:19:28.431Z,92.20
2023-03-22T03:23:08.404Z,91.20
2023-03-22T03:26:44.951Z,105.90
2023-03-22T03:30:17.508Z,90.60
2023-03-22T03:33:53.190Z,92.30
2023-03-22T03:37:22.901Z,84.80
2023-03-22T03:40:53.789Z,90.00
2023-03-22T03:44:22.291Z,90.20
2023-03-22T03:47:55.646Z,84.40
2023-03-22T03:51:22.938Z,87.80
2023-03-22T03:54:50.122Z,88.10
2023-03-22T03:58:19.669Z,81.70
2023-03-22T04:01:51.856Z,92.90
2023-03-22T04:05:23.680Z,87.30
2023-03-22T04:08:53.930Z,85.70
2023-03-22T04:12:24.208Z,89.40
2023-03-22T04:16:17.365Z,91.30
2023-03-22T04:19:45.729Z,82.90
2023-03-22T04:23:13.072Z,87.00
2023-03-22T04:26:41.723Z,87.70
2023-03-22T04:30:36.224Z,82.30
2023-03-22T04:34:40.096Z,83.20
2023-03-22T04:38:13.072Z,84.80
2023-03-22T04:41:41.028Z,86.60
2023-03-22T04:45:10.712Z,79.70
2023-03-22T04:48:39.867Z,78.30
2023-03-22T04:52:07.376Z,83.30
2023-03-22T04:55:36.167Z,87.80
2023-03-22T04:59:03.736Z,78.90
2023-03-22T05:02:31.476Z,90.80
2023-03-22T05:06:01.552Z,81.90
2023-03-22T05:09:37.291Z,81.80
2023-03-22T05:13:04.607Z,79.10
2023-03-22T05:16:36.245Z,84.00
2023-03-22T05:20:09.629Z,83.20
2023-03-22T05:23:38.198Z,79.10
2023-03-22T05:27:05.900Z,83.10
2023-03-22T05:30:33.908Z,77.90
2023-03-22T05:34:35.630Z,73.40
2023-03-22T05:38:12.510Z,81.60
2023-03-22T05:41:44.142Z,73.80
2023-03-22T05:45:13.403Z,71.90
2023-03-22T05:48:42.442Z,68.00
2023-03-22T05:52:10.940Z,73.40
2023-03-22T05:55:57.874Z,71.10
2023-03-22T05:59:26.327Z,74.30
2023-03-22T06:02:56.594Z,75.00
2023-03-22T06:06:24.260Z,67.20
2023-03-22T06:10:00.107Z,69.40
2023-03-22T06:13:28.630Z,70.30
2023-03-22T06:16:56.349Z,72.90
2023-03-22T06:20:25.867Z,68.30
2023-03-22T06:23:58.736Z,69.20
2023-03-22T06:27:26.449Z,63.20
2023-03-22T06:30:56.721Z,67.00
2023-03-22T06:34:42.789Z,61.90
2023-03-22T06:38:10.436Z,58.00
2023-03-22T06:41:37.934Z,60.50
2023-03-22T06:45:05.680Z,54.80
2023-03-22T06:48:36.249Z,60.40
2023-03-22T06:52:10.071Z,58.10
2023-03-22T06:55:37.582Z,56.50
2023-03-22T06:59:13.971Z,51.70
2023-03-22T07:02:41.017Z,50.80
2023-03-22T07:06:26.592Z,49.20
2023-03-22T07:09:54.815Z,48.00
2023-03-22T07:13:22.454Z,46.10
2023-03-22T07:16:50.926Z,48.80
2023-03-22T07:20:20.373Z,55.80
2023-03-22T07:23:48.205Z,41.70
2023-03-22T07:27:17.656Z,41.90
2023-03-22T07:30:46.737Z,39.20
2023-03-22T07:34:16.376Z,39.10
2023-03-22T07:37:55.490Z,34.20
2023-03-22T07:41:30.260Z,37.80
2023-03-22T07:45:27.228Z,38.10
2023-03-22T07:49:13.341Z,34.60
2023-03-22T07:52:59.394Z,34.00
2023-03-22T07:56:29.724Z,33.50
2023-03-22T07:59:57.168Z,34.40
2023-03-22T08:03:26.446Z,33.80
2023-03-22T08:07:00.163Z,30.70
2023-03-22T08:10:28.205Z,34.80
2023-03-22T08:13:56.124Z,30.90
2023-03-22T08:17:23.601Z,27.00
2023-03-22T08:20:56.302Z,31.60
2023-03-22T08:24:25.406Z,30.90
2023-03-22T08:28:01.573Z,34.20
2023-03-22T08:31:28.925Z,29.00
2023-03-22T08:34:56.958Z,27.10
2023-03-22T08:38:25.546Z,24.30
2023-03-22T08:41:53.831Z,28.40
2023-03-22T08:45:24.407Z,27.40
2023-03-22T08:49:00.551Z,28.80
2023-03-22T08:52:37.238Z,30.00
2023-03-22T08:56:10.978Z,26.80
2023-03-22T08:59:53.064Z,28.00
2023-03-22T09:03:28.835Z,26.60
2023-03-22T09:06:56.933Z,25.60
2023-03-22T09:10:24.152Z,27.60
2023-03-22T09:13:52.998Z,27.00
2023-03-22T09:17:22.400Z,26.30
2023-03-22T09:20:52.814Z,35.10
2023-03-22T09:24:22.572Z,27.00
2023-03-22T09:27:53.319Z,26.60
2023-03-22T09:31:20.889Z,25.20
2023-03-22T09:34:54.035Z,25.10
2023-03-22T09:38:22.100Z,25.40
2023-03-22T09:41:55.466Z,21.80
2023-03-22T09:45:30.916Z,22.30
2023-03-22T09:49:01.282Z,23.80
2023-03-22T09:52:28.378Z,20.30
2023-03-22T09:56:02.140Z,19.30
2023-03-22T09:59:40.101Z,18.00
2023-03-22T10:03:21.135Z,21.00
2023-03-22T10:06:55.475Z,17.40
2023-03-22T10:10:24.847Z,22.70
2023-03-22T10:14:02.575Z,16.80
2023-03-22T10:17:30.931Z,19.20
2023-03-22T10:21:02.080Z,18.80
2023-03-22T10:24:32.764Z,18.70
2023-03-22T10:28:01.083Z,16.50
2023-03-22T10:31:30.698Z,17.10
2023-03-22T10:34:59.415Z,17.60
2023-03-22T10:38:32.193Z,17.40
2023-03-22T10:42:03.789Z,16.50
2023-03-22T10:45:33.963Z,15.70
2023-03-22T10:49:03.538Z,18.00
2023-03-22T10:56:15.776Z,18.70
2023-03-22T10:59:48.684Z,15.40
2023-03-22T11:03:29.210Z,15.80
2023-03-22T11:06:57.024Z,15.80
2023-03-22T11:10:28.543Z,18.70
2023-03-22T11:14:01.113Z,16.00
2023-03-22T11:17:28.652Z,15.80
2023-03-22T11:21:02.677Z,13.00
2023-03-22T11:24:32.103Z,15.30
2023-03-22T11:28:09.510Z,17.60
2023-03-22T11:32:06.770Z,14.50
2023-03-22T11:35:34.282Z,15.30
2023-03-22T11:39:02.821Z,15.20
2023-03-22T11:42:29.996Z,15.60
2023-03-22T11:45:59.693Z,13.50
2023-03-22T11:49:29.164Z,15.20
2023-03-22T11:52:57.198Z,17.10
2023-03-22T11:56:30.242Z,13.40
2023-03-22T12:00:09.774Z,12.60
2023-03-22T12:07:15.628Z,13.80
2023-03-22T12:10:45.069Z,12.70
2023-03-22T12:14:20.694Z,11.70
2023-03-22T12:17:56.862Z,13.60
2023-03-22T12:21:25.080Z,10.70
2023-03-22T12:24:52.816Z,14.40
2023-03-22T12:28:22.830Z,14.20
2023-03-22T12:31:58.883Z,11.30
2023-03-22T12:35:30.640Z,13.30
2023-03-22T12:39:01.393Z,14.50
2023-03-22T12:42:40.472Z,13.70
2023-03-22T12:46:22.160Z,14.90
2023-03-22T12:49:55.920Z,12.10
2023-03-22T12:53:28.582Z,11.70
2023-03-22T12:56:58.948Z,12.90
2023-03-22T13:00:34.821Z,13.20
2023-03-22T13:04:22.941Z,13.90
2023-03-22T13:08:04.194Z,11.10
2023-03-22T13:11:32.379Z,15.00
2023-03-22T13:15:03.596Z,12.00
2023-03-22T13:18:58.051Z,12.70
2023-03-22T13:22:31.382Z,10.80
2023-03-22T13:26:06.885Z,11.60
2023-03-22T13:29:42.096Z,12.80
2023-03-22T13:33:21.973Z,10.40
2023-03-22T13:40:39.547Z,10.70
2023-03-22T13:44:27.324Z,8.80
2023-03-22T13:48:07.768Z,9.50
2023-03-22T13:51:35.522Z,6.60
2023-03-22T13:55:02.639Z,9.80
2023-03-22T13:58:49.383Z,8.80
2023-03-22T14:02:24.551Z,6.70
2023-03-22T14:06:02.671Z,7.90
2023-03-22T14:09:35.797Z,10.20
2023-03-22T14:13:07.183Z,9.90
2023-03-22T14:16:41.618Z,9.50
2023-03-22T14:20:13.333Z,8.20
